Guinda, California
Current Conditions -  °F | °C
As of 10:35 PM on Friday 19 Dec 2014 (Local Time) from KEDU Reporting Station
Overcast Overcast  
Wind Chill: 52°   Ceiling: 1100
Heat Index: 52°   Visibility: 1.7mi
Dew Point: 50°   Wind: 6mph
Humidity: 94%   Direction: 150°SSE
Pressure: 30.17"   Gusts: NA
Location:  38.83°N, 122.2°W
Report Text: KEDU 200635Z AUTO 15005KT 1 3/4SM SCT004 BKN011 OVC022 11/10 A3017 RMK AO1
Loading
Personal Weather Stations






























Interactive Weather Map New forecast layout! Learn more

10-Day Weather Forecast

Advertisements
Track Severe Weather on mobile